Time;durP1;ratioP1;P1;durP2;ratioP2;P2;SDS_P1;SDS_P2;PMS_P1;PMS_P2;Temp;Humidity;BMP_temperature;BMP_pressure;BME280_temperature;BME280_humidity;BME280_pressure;Samples;Min_cycle;Max_cycle;Signal;HPM_P1;HPM_P2
2022/12/11 00:01:21;;;;;;;11.07;7.67;;;12.60;99.90;;;12.72;74.16;92929.47;5073595;28;20496;-57
2022/12/11 00:03:48;;;;;;;9.70;7.17;;;12.60;99.90;;;12.73;74.12;92910.81;5082740;28;20995;-53
2022/12/11 00:06:18;;;;;;;20.40;7.70;;;12.60;99.90;;;12.77;73.94;92920.97;5074487;28;20444;-56
2022/12/11 00:08:46;;;;;;;11.03;7.70;;;12.60;99.90;;;12.80;74.09;92921.38;5079070;28;20469;-56
2022/12/11 00:11:13;;;;;;;14.70;7.90;;;12.70;99.90;;;12.82;74.10;92923.81;5079399;28;20577;-56
2022/12/11 00:13:41;;;;;;;12.40;7.37;;;12.80;99.90;;;12.84;73.89;92906.75;5079418;28;20979;-53
2022/12/11 00:16:10;;;;;;;14.77;8.43;;;12.80;99.90;;;12.86;73.90;92874.91;5078736;28;20523;-53
2022/12/11 00:18:37;;;;;;;13.70;9.30;;;12.80;99.90;;;12.85;73.78;92933.94;5079707;28;20546;-57
2022/12/11 00:21:05;;;;;;;13.83;9.50;;;12.80;99.90;;;12.85;73.87;92924.19;5078863;28;20857;-55
2022/12/11 00:23:34;;;;;;;18.83;11.87;;;12.70;99.90;;;12.82;74.00;92972.09;5081487;28;20488;-56
2022/12/11 00:26:04;;;;;;;16.40;11.40;;;12.70;99.90;;;12.78;74.15;92943.66;5078466;28;20475;-57
2022/12/11 00:28:31;;;;;;;19.80;11.00;;;12.70;99.90;;;12.77;74.21;92923.59;5077495;28;20537;-55
2022/12/11 00:30:59;;;;;;;23.50;11.73;;;12.70;99.90;;;12.75;74.17;92942.28;5071280;28;20502;-55
2022/12/11 00:33:28;;;;;;;18.13;10.30;;;12.70;99.90;;;12.73;74.33;92931.09;5073659;28;20915;-57
2022/12/11 00:35:55;;;;;;;18.70;10.90;;;12.60;99.90;;;12.73;74.33;92905.53;5082745;28;20465;-56
2022/12/11 00:38:22;;;;;;;18.97;11.90;;;12.60;99.90;;;12.72;74.43;92932.13;5082600;28;20991;-57
2022/12/11 00:40:50;;;;;;;20.03;11.43;;;12.60;99.90;;;12.71;74.50;92885.66;5074805;28;20579;-54
2022/12/11 00:43:17;;;;;;;26.87;12.23;;;12.60;99.90;;;12.71;74.41;92901.47;5081886;28;20465;-55
2022/12/11 00:45:45;;;;;;;23.10;10.40;;;12.60;99.90;;;12.69;74.38;92899.03;5075377;28;20474;-56
2022/12/11 00:48:13;;;;;;;13.13;10.33;;;12.60;99.90;;;12.70;74.66;92862.91;5078563;28;20606;-55
2022/12/11 00:50:41;;;;;;;17.30;9.90;;;12.60;99.90;;;12.70;74.43;92890.13;5085240;28;20497;-54
2022/12/11 00:53:09;;;;;;;19.63;10.53;;;12.60;99.90;;;12.70;74.23;92879.56;5079040;28;21623;-53
2022/12/11 00:55:37;;;;;;;16.10;10.17;;;12.60;99.90;;;12.70;74.49;92882.19;5083736;28;20477;-55
2022/12/11 00:58:05;;;;;;;17.20;9.73;;;12.60;99.90;;;12.69;74.27;92919.34;5082849;28;20454;-56
2022/12/11 01:00:32;;;;;;;16.20;10.00;;;12.60;99.90;;;12.61;74.00;92885.22;5077560;28;20475;-55
2022/12/11 01:02:59;;;;;;;17.03;9.17;;;12.60;99.90;;;12.59;74.79;92892.53;5077560;28;20548;-53
2022/12/11 01:05:27;;;;;;;12.30;7.70;;;12.50;99.90;;;12.57;74.51;92910.38;5081515;28;20487;-58
2022/12/11 01:07:55;;;;;;;17.50;7.70;;;12.50;99.90;;;12.54;74.83;92907.13;5079282;28;20461;-54
2022/12/11 01:10:24;;;;;;;12.53;7.53;;;12.50;99.90;;;12.54;74.88;92922.94;5075182;28;20494;-53
2022/12/11 01:12:51;;;;;;;19.57;9.10;;;12.50;99.90;;;12.57;75.18;92905.09;5081269;28;20506;-55
2022/12/11 01:15:19;;;;;;;19.83;8.00;;;12.50;99.90;;;12.60;75.11;92904.72;5083289;28;20594;-55
2022/12/11 01:17:46;;;;;;;9.23;6.77;;;12.50;99.90;;;12.60;74.76;92925.81;5082956;28;20855;-58
2022/12/11 01:20:13;;;;;;;14.87;7.30;;;12.50;99.90;;;12.60;75.16;92907.34;5083086;28;20478;-57
2022/12/11 01:22:41;;;;;;;14.97;8.13;;;12.50;99.90;;;12.60;74.98;92892.31;5082879;28;20454;-57
2022/12/11 01:25:10;;;;;;;11.53;7.50;;;12.50;99.90;;;12.59;75.31;92881.97;5083257;28;20954;-57
2022/12/11 01:27:37;;;;;;;16.90;7.80;;;12.50;99.90;;;12.59;75.21;92903.06;5078159;28;20511;-57
2022/12/11 01:30:06;;;;;;;8.67;4.67;;;12.50;99.90;;;12.58;74.85;92890.91;5081550;28;20494;-57
2022/12/11 01:32:33;;;;;;;10.23;5.90;;;12.50;99.90;;;12.57;75.94;92889.28;5081006;28;20537;-57
2022/12/11 01:35:01;;;;;;;7.50;5.20;;;12.50;99.90;;;12.58;76.39;92883.81;5083964;28;20477;-54
2022/12/11 01:37:28;;;;;;;9.30;5.50;;;12.50;99.90;;;12.60;76.05;92888.88;5081447;28;20512;-55
2022/12/11 01:39:55;;;;;;;14.10;6.50;;;12.50;99.90;;;12.64;76.17;92912.03;5086856;28;20473;-55
2022/12/11 01:42:25;;;;;;;7.50;4.80;;;12.50;99.90;;;12.68;76.16;92901.88;5083333;28;20467;-55
2022/12/11 01:45:25;;;;;;;4.87;4.47;;;12.60;99.90;;;12.72;76.09;92882.00;5079624;28;20554;-57
2022/12/11 01:47:55;;;;;;;11.17;5.20;;;12.60;99.90;;;12.76;76.07;92883.19;5075764;28;20529;-56
2022/12/11 01:50:22;;;;;;;3.00;1.27;;;12.60;99.90;;;12.81;75.27;92875.50;5085464;28;21100;-56
2022/12/11 01:52:50;;;;;;;1.00;0.53;;;12.70;99.90;;;12.92;74.85;92852.97;5078402;28;20948;-57
2022/12/11 01:55:17;;;;;;;0.90;0.70;;;12.80;99.90;;;13.15;74.52;92812.97;5079799;28;20523;-55
2022/12/11 01:57:47;;;;;;;12.03;0.90;;;13.00;99.90;;;13.32;73.72;92839.69;5079200;28;20561;-54
2022/12/11 02:00:16;;;;;;;21.47;0.83;;;13.10;99.90;;;13.51;72.76;92826.69;5080334;28;20488;-54
2022/12/11 02:02:43;;;;;;;6.03;0.60;;;13.40;99.90;;;13.66;71.43;92821.97;5076518;28;20528;-54
2022/12/11 02:05:10;;;;;;;2.90;0.80;;;13.50;99.90;;;13.79;70.85;92834.31;5075460;28;20490;-54
2022/12/11 02:07:40;;;;;;;0.70;0.40;;;13.60;99.90;;;13.91;69.67;92834.47;5078389;28;20650;-55
2022/12/11 02:10:09;;;;;;;6.07;0.50;;;13.80;99.90;;;14.00;69.30;92830.56;5081492;28;20494;-54
2022/12/11 02:12:41;;;;;;;2.87;0.80;;;13.90;99.90;;;14.08;68.96;92821.56;5082684;28;20465;-57
2022/12/11 02:15:14;;;;;;;4.33;0.60;;;14.00;99.90;;;14.15;68.70;92817.06;5080030;28;20479;-55
2022/12/11 02:17:44;;;;;;;8.27;0.60;;;14.00;99.90;;;14.20;68.11;92789.97;5081558;28;20455;-56
2022/12/11 02:20:15;;;;;;;0.90;0.50;;;14.10;99.90;;;14.25;67.55;92792.78;5074667;28;20554;-58
2022/12/11 02:23:08;;;;;;;3.60;0.50;;;14.10;99.90;;;14.34;67.30;92804.72;5081527;28;20461;-56
2022/12/11 02:25:38;;;;;;;2.90;1.00;;;14.20;99.90;;;14.39;66.98;92789.06;5072391;28;20505;-54
2022/12/11 02:28:19;;;;;;;3.23;0.60;;;14.30;99.90;;;14.46;66.49;92760.69;5081896;28;20454;-57
2022/12/11 02:30:48;;;;;;;1.90;0.60;;;14.30;99.90;;;14.52;66.43;92774.91;5076781;28;20493;-56
2022/12/11 02:33:15;;;;;;;1.57;0.60;;;14.40;99.90;;;14.57;66.49;92772.41;5078070;28;20648;-57
2022/12/11 02:35:44;;;;;;;3.33;0.60;;;14.40;99.90;;;14.61;65.92;92771.00;5079580;28;20486;-54
2022/12/11 02:38:14;;;;;;;1.10;0.70;;;14.50;99.90;;;14.66;66.42;92776.44;5076999;28;20576;-55
2022/12/11 02:40:42;;;;;;;0.80;0.50;;;14.50;99.90;;;14.73;66.69;92786.97;5075260;28;20508;-54
2022/12/11 02:43:11;;;;;;;6.10;0.70;;;14.60;99.90;;;14.78;66.74;92796.91;5080673;28;20451;-55
2022/12/11 02:45:40;;;;;;;1.63;0.70;;;14.60;99.90;;;14.82;67.06;92803.38;5082190;28;20566;-56
2022/12/11 02:48:09;;;;;;;2.60;0.80;;;14.70;99.90;;;14.85;67.17;92818.84;5079018;28;21106;-54
2022/12/11 02:50:37;;;;;;;1.00;0.60;;;14.70;99.90;;;14.89;67.46;92817.38;5081222;28;20525;-54
2022/12/11 02:53:05;;;;;;;2.97;0.80;;;14.80;99.90;;;14.92;67.62;92837.28;5078516;28;20499;-53
2022/12/11 02:55:32;;;;;;;1.93;0.90;;;14.80;99.90;;;14.95;68.12;92837.69;5080996;28;20566;-56
2022/12/11 02:58:03;;;;;;;6.83;0.93;;;14.80;99.90;;;14.99;68.12;92838.84;5079132;28;20472;-57
2022/12/11 03:00:30;;;;;;;1.43;1.07;;;14.80;99.90;;;15.01;68.01;92831.53;5077366;28;20565;-57
2022/12/11 03:02:59;;;;;;;1.73;0.70;;;14.90;99.90;;;15.04;67.94;92815.22;5076447;28;20454;-57
2022/12/11 03:05:27;;;;;;;3.37;0.80;;;14.90;99.90;;;15.06;67.84;92791.97;5076886;28;20578;-57
2022/12/11 03:07:54;;;;;;;0.90;0.70;;;15.00;99.90;;;15.10;67.78;92804.75;5078271;28;20507;-56
2022/12/11 03:10:22;;;;;;;3.27;0.67;;;14.90;99.90;;;15.11;67.75;92827.56;5078905;28;20498;-54
2022/12/11 03:12:51;;;;;;;1.60;0.70;;;14.90;99.90;;;15.13;67.58;92823.66;5080878;28;21020;-57
2022/12/11 03:15:20;;;;;;;2.87;0.83;;;15.00;99.90;;;15.14;67.43;92835.88;5079010;28;20734;-56
2022/12/11 03:17:56;;;;;;;1.10;1.00;;;15.00;99.90;;;15.18;67.68;92821.19;5071186;28;20443;-55
2022/12/11 03:20:33;;;;;;;3.57;0.60;;;15.00;99.90;;;15.19;67.78;92824.63;5077580;28;20523;-53
2022/12/11 03:23:06;;;;;;;1.63;0.60;;;15.00;99.90;;;15.21;67.76;92811.97;5082406;28;20490;-54
2022/12/11 03:25:37;;;;;;;2.43;0.70;;;15.10;99.90;;;15.22;67.78;92806.47;5081719;28;20530;-55
2022/12/11 03:28:09;;;;;;;2.60;0.60;;;15.10;99.90;;;15.23;67.74;92823.19;5079487;28;20449;-56
2022/12/11 03:30:36;;;;;;;1.43;0.60;;;15.10;99.90;;;15.24;68.02;92824.78;5080701;28;20559;-57
2022/12/11 03:33:05;;;;;;;1.87;0.73;;;15.10;99.90;;;15.25;68.16;92831.72;5078065;28;20523;-55
2022/12/11 03:35:35;;;;;;;5.43;1.27;;;15.10;99.90;;;15.27;67.91;92832.28;5083506;28;20473;-58
2022/12/11 03:38:05;;;;;;;3.53;0.90;;;15.10;99.90;;;15.29;68.12;92846.16;5076496;28;20462;-55
2022/12/11 03:40:34;;;;;;;4.40;0.70;;;15.10;99.90;;;15.30;68.11;92855.69;5081665;28;20503;-57
2022/12/11 03:43:01;;;;;;;1.50;0.67;;;15.20;99.90;;;15.34;68.18;92866.69;5076904;28;20546;-57
2022/12/11 03:45:29;;;;;;;1.50;0.83;;;15.20;99.90;;;15.33;68.42;92870.34;5079460;28;20509;-57
2022/12/11 03:47:56;;;;;;;3.57;0.70;;;15.20;99.90;;;15.33;68.23;92873.78;5078619;28;20455;-57
2022/12/11 03:50:23;;;;;;;0.80;0.60;;;15.20;99.90;;;15.33;68.54;92884.41;5078524;28;20558;-56
2022/12/11 03:52:52;;;;;;;2.50;0.67;;;15.20;99.90;;;15.33;68.57;92892.34;5078354;28;20458;-53
2022/12/11 03:55:19;;;;;;;5.57;1.37;;;15.20;99.90;;;15.34;68.38;92899.25;5078128;28;20905;-57
2022/12/11 03:57:47;;;;;;;2.13;1.00;;;15.20;99.90;;;15.34;68.71;92917.81;5075362;28;20552;-57
2022/12/11 04:00:17;;;;;;;2.40;0.93;;;15.20;99.90;;;15.35;68.52;92906.19;5079516;28;20915;-57
2022/12/11 04:02:44;;;;;;;2.37;0.97;;;15.20;99.90;;;15.36;68.42;92909.66;5083113;28;20963;-54
2022/12/11 04:05:31;;;;;;;2.97;0.70;;;15.20;99.90;;;15.37;68.27;92906.78;5080214;28;20466;-55
2022/12/11 04:08:00;;;;;;;1.23;0.80;;;15.20;99.90;;;15.38;68.33;92916.34;5076460;28;20454;-57
2022/12/11 04:10:27;;;;;;;2.47;0.87;;;15.20;99.90;;;15.40;68.20;92932.03;5080278;28;20490;-56
2022/12/11 04:12:54;;;;;;;2.27;1.00;;;15.20;99.90;;;15.42;68.01;92930.78;5079611;28;20458;-55
2022/12/11 04:15:21;;;;;;;2.47;0.93;;;15.30;99.90;;;15.45;67.96;92953.38;5074780;28;21075;-55
2022/12/11 04:26:05;;;;;;;3.60;1.37;;;15.30;99.90;;;15.46;67.66;92980.66;5076321;28;20815;-55
2022/12/11 04:28:33;;;;;;;15.37;1.37;;;15.30;99.90;;;15.47;67.50;92958.47;5076989;28;20545;-56
2022/12/11 04:31:00;;;;;;;3.17;1.13;;;15.30;99.90;;;15.47;67.39;92963.75;5075428;28;20498;-56
2022/12/11 04:33:27;;;;;;;3.07;1.20;;;15.30;99.90;;;15.47;67.36;92972.50;5077687;28;20939;-56
2022/12/11 04:35:57;;;;;;;3.50;1.30;;;15.30;99.90;;;15.47;67.51;92974.34;5080458;28;20544;-54
2022/12/11 04:38:25;;;;;;;3.17;1.47;;;15.30;99.90;;;15.48;67.50;92973.34;5079870;28;21371;-57
2022/12/11 04:40:58;;;;;;;3.43;1.57;;;15.30;99.90;;;15.48;67.44;92976.00;5079553;28;20477;-57
2022/12/11 04:43:26;;;;;;;3.47;1.20;;;15.30;99.90;;;15.47;67.44;92982.31;5079296;28;20535;-55
2022/12/11 04:46:01;;;;;;;6.43;1.20;;;15.30;99.90;;;15.47;67.10;92985.75;5077206;28;20491;-56
2022/12/11 04:48:29;;;;;;;8.20;1.60;;;15.30;99.90;;;15.46;67.45;92991.28;5082548;28;20466;-56
2022/12/11 04:50:56;;;;;;;11.67;1.27;;;15.30;99.90;;;15.47;67.19;92987.59;5076381;28;20540;-56
2022/12/11 04:53:25;;;;;;;3.87;1.10;;;15.30;99.90;;;15.47;67.21;92982.31;5076245;28;20886;-56
2022/12/11 04:55:52;;;;;;;8.83;1.30;;;15.30;99.90;;;15.46;66.99;92985.97;5078370;28;20998;-55
2022/12/11 04:58:20;;;;;;;2.50;1.20;;;15.30;99.90;;;15.44;66.29;92988.84;5080180;28;20807;-56
2022/12/11 05:00:47;;;;;;;3.90;0.90;;;15.30;99.90;;;15.44;66.39;92980.09;5074833;28;20521;-58
2022/12/11 05:03:14;;;;;;;1.40;0.77;;;15.30;99.90;;;15.41;66.06;92968.06;5076773;28;20462;-57
2022/12/11 05:05:41;;;;;;;8.10;1.43;;;15.30;99.90;;;15.41;65.88;92973.38;5074856;28;20473;-55
2022/12/11 05:08:08;;;;;;;5.03;1.30;;;15.30;99.90;;;15.40;66.00;92972.56;5076240;28;20454;-56
2022/12/11 05:10:37;;;;;;;3.53;1.23;;;15.20;99.90;;;15.40;65.91;92961.19;5079305;28;20911;-54
2022/12/11 05:13:04;;;;;;;3.03;1.13;;;15.20;99.90;;;15.39;66.01;92963.00;5080570;28;20833;-57
2022/12/11 05:15:32;;;;;;;9.07;1.63;;;15.20;99.90;;;15.38;65.84;92976.47;5079434;28;20473;-56
2022/12/11 05:17:59;;;;;;;6.60;1.73;;;15.20;99.90;;;15.37;65.85;92961.59;5075367;28;20481;-55
2022/12/11 05:20:26;;;;;;;2.23;1.17;;;15.20;99.90;;;15.35;65.56;92961.81;5076646;28;20515;-55
2022/12/11 05:22:54;;;;;;;7.07;2.27;;;15.20;99.90;;;15.35;65.91;92958.34;5079273;28;20586;-56
2022/12/11 05:25:21;;;;;;;7.30;2.00;;;15.20;99.90;;;15.33;65.70;92953.25;5071054;28;20552;-55
2022/12/11 05:27:50;;;;;;;9.20;2.50;;;15.20;99.90;;;15.30;65.72;92935.16;5077067;28;20461;-54
2022/12/11 05:30:17;;;;;;;6.80;2.00;;;15.20;99.90;;;15.28;65.82;92955.75;5075657;28;20477;-59
2022/12/11 05:32:45;;;;;;;3.63;1.60;;;15.20;99.90;;;15.26;65.73;92955.16;5077426;28;20458;-56
2022/12/11 05:35:12;;;;;;;3.33;1.63;;;15.10;99.90;;;15.24;65.95;92967.81;5079103;28;20474;-55
2022/12/11 05:37:40;;;;;;;6.03;1.63;;;15.10;99.90;;;15.25;65.99;92977.38;5082982;28;20459;-54
2022/12/11 05:40:11;;;;;;;4.80;1.10;;;15.10;99.90;;;15.26;65.95;92976.34;5089058;28;20482;-56
2022/12/11 05:42:39;;;;;;;5.70;1.93;;;15.10;99.90;;;15.27;65.96;92964.72;5085406;28;20474;-56
2022/12/11 05:45:08;;;;;;;5.10;2.03;;;15.10;99.90;;;15.28;66.29;92966.34;5081556;28;20503;-58
2022/12/11 05:47:36;;;;;;;3.97;2.33;;;15.10;99.90;;;15.29;66.29;92969.81;5077954;28;20454;-57
2022/12/11 05:50:03;;;;;;;2.30;1.57;;;15.10;99.90;;;15.29;66.10;92981.22;5084960;28;20481;-58
2022/12/11 05:52:32;;;;;;;8.47;1.70;;;15.10;99.90;;;15.28;66.15;92963.69;5083149;28;20497;-54
2022/12/11 05:54:59;;;;;;;4.60;1.90;;;15.10;99.90;;;15.29;66.28;92964.50;5081212;28;20462;-57
2022/12/11 05:57:26;;;;;;;17.47;2.10;;;15.20;99.90;;;15.28;66.25;92961.06;5082909;28;20450;-55
2022/12/11 05:59:53;;;;;;;5.80;2.10;;;15.10;99.90;;;15.30;66.58;92961.63;5080157;28;20483;-56
2022/12/11 06:02:22;;;;;;;9.80;2.40;;;15.20;99.90;;;15.32;66.44;92964.91;5082999;28;20462;-57
2022/12/11 06:04:49;;;;;;;12.23;2.30;;;15.20;99.90;;;15.31;66.34;92947.38;5073771;28;20462;-53
2022/12/11 06:07:17;;;;;;;5.90;1.57;;;15.20;99.90;;;15.33;66.49;92953.25;5075159;28;20868;-55
2022/12/11 06:09:44;;;;;;;7.27;1.80;;;15.20;99.90;;;15.33;66.43;92957.75;5084785;28;20646;-56
2022/12/11 06:12:11;;;;;;;13.67;2.73;;;15.20;99.90;;;15.34;66.30;92954.91;5077994;28;20516;-55
2022/12/11 06:14:39;;;;;;;8.03;2.20;;;15.20;99.90;;;15.35;66.43;92959.19;5079034;28;20485;-56
2022/12/11 06:17:07;;;;;;;14.30;1.73;;;15.20;99.90;;;15.36;66.46;92971.38;5084748;28;20529;-55
2022/12/11 06:19:35;;;;;;;3.57;2.47;;;15.20;99.90;;;15.37;66.32;92970.34;5075252;28;20557;-56
2022/12/11 06:22:03;;;;;;;15.73;2.27;;;15.20;99.90;;;15.37;66.34;92980.16;5081599;28;20466;-58
2022/12/11 06:24:30;;;;;;;8.37;1.70;;;15.20;99.90;;;15.38;66.38;92977.28;5084383;28;21009;-57
2022/12/11 06:26:58;;;;;;;13.30;3.30;;;15.20;99.90;;;15.39;66.50;92984.19;5078888;28;20455;-57
2022/12/11 06:29:25;;;;;;;6.83;2.23;;;15.30;99.90;;;15.40;66.48;92983.16;5082166;28;20496;-55
2022/12/11 06:31:52;;;;;;;11.93;3.13;;;15.30;99.90;;;15.41;66.55;92979.50;5071565;28;20486;-57
2022/12/11 06:34:19;;;;;;;13.20;2.70;;;15.30;99.90;;;15.41;66.73;93005.16;5080330;28;20930;-56
2022/12/11 06:36:48;;;;;;;5.47;1.70;;;15.30;99.90;;;15.42;66.58;93007.59;5079105;28;20450;-55
2022/12/11 06:39:15;;;;;;;9.97;2.50;;;15.30;99.90;;;15.42;67.36;93018.19;5077514;28;20520;-55
2022/12/11 06:41:42;;;;;;;7.10;2.10;;;15.30;99.90;;;15.45;66.97;93005.56;5078422;28;20503;-55
2022/12/11 06:44:10;;;;;;;8.50;2.67;;;15.30;99.90;;;15.45;67.19;93010.88;5081019;28;20501;-57
2022/12/11 06:46:37;;;;;;;4.23;1.97;;;15.30;99.90;;;15.45;67.22;93003.72;5074898;28;20927;-54
2022/12/11 06:49:04;;;;;;;11.70;2.00;;;15.30;99.90;;;15.46;67.09;93009.81;5082689;28;20511;-57
2022/12/11 06:51:31;;;;;;;3.60;1.90;;;15.30;99.90;;;15.46;66.66;92997.41;5078115;28;20993;-55
2022/12/11 06:54:00;;;;;;;30.30;14.27;;;15.30;99.90;;;15.47;66.58;92993.69;5079066;28;20481;-57
2022/12/11 06:56:27;;;;;;;5.87;2.13;;;15.40;99.90;;;15.50;66.71;92987.97;5073647;28;20508;-56
2022/12/11 06:58:55;;;;;;;4.47;1.93;;;15.30;99.90;;;15.51;66.58;92994.09;5073583;28;20442;-54
2022/12/11 07:01:24;;;;;;;13.63;2.00;;;15.40;99.90;;;15.53;66.56;92995.50;5076018;28;20461;-57
2022/12/11 07:03:53;;;;;;;12.73;3.00;;;15.40;99.90;;;15.55;66.65;93008.53;5077612;28;20986;-57
2022/12/11 07:06:20;;;;;;;11.30;2.90;;;15.40;99.90;;;15.56;66.60;92999.56;5076613;28;20986;-57
2022/12/11 07:08:47;;;;;;;8.77;1.93;;;15.40;99.90;;;15.58;66.67;93006.28;5081548;28;20457;-57
2022/12/11 07:11:17;;;;;;;2.37;1.50;;;15.40;99.90;;;15.62;66.46;93011.94;5083778;28;20501;-56
2022/12/11 07:13:44;;;;;;;9.93;2.70;;;15.50;99.90;;;15.65;66.44;93006.22;5077487;28;20961;-56
2022/12/11 07:16:13;;;;;;;6.10;2.30;;;15.50;99.90;;;15.67;66.55;93019.25;5074542;28;20482;-57
2022/12/11 07:18:40;;;;;;;5.77;2.53;;;15.50;99.90;;;15.69;66.07;93017.19;5077278;28;20522;-58
2022/12/11 07:21:08;;;;;;;7.10;3.20;;;15.50;99.90;;;15.72;66.16;93019.41;5070794;28;20897;-60
2022/12/11 07:23:35;;;;;;;5.80;2.40;;;15.50;99.90;;;15.76;66.09;93032.00;5078922;28;20559;-58
2022/12/11 07:26:05;;;;;;;5.60;2.63;;;15.60;99.90;;;15.80;65.75;93028.94;5076204;28;20846;-59
2022/12/11 07:28:34;;;;;;;5.40;1.50;;;15.60;99.90;;;15.82;65.81;93027.72;5080160;28;20612;-57
2022/12/11 07:31:06;;;;;;;6.10;2.53;;;15.60;99.90;;;15.88;65.95;93036.59;5074485;28;20478;-56
2022/12/11 07:33:33;;;;;;;8.10;2.20;;;15.70;99.90;;;15.92;65.74;93037.81;5078379;28;20537;-58
2022/12/11 07:36:03;;;;;;;4.40;1.67;;;15.70;99.90;;;15.97;65.47;93045.09;5079551;28;20470;-56
2022/12/11 07:38:30;;;;;;;2.13;1.30;;;15.80;99.90;;;15.98;65.34;93055.50;5079959;28;20533;-54
2022/12/11 07:41:00;;;;;;;2.57;1.90;;;15.80;99.90;;;16.03;65.16;93049.53;5077790;28;20517;-59
2022/12/11 07:43:28;;;;;;;6.60;1.70;;;15.80;99.90;;;16.07;64.90;93051.53;5081915;28;20953;-58
2022/12/11 07:46:01;;;;;;;8.50;1.97;;;15.90;99.90;;;16.10;64.81;93056.41;5079769;28;20470;-57
2022/12/11 07:48:28;;;;;;;8.23;2.30;;;15.90;99.90;;;16.15;65.00;93047.00;5080507;28;20458;-60
2022/12/11 07:50:56;;;;;;;5.63;2.20;;;16.00;99.90;;;16.16;64.56;93065.34;5082269;28;20997;-55
2022/12/11 07:53:23;;;;;;;6.30;2.00;;;16.00;99.90;;;16.18;64.26;93051.88;5078391;28;20512;-54
2022/12/11 07:55:50;;;;;;;5.67;3.00;;;16.00;99.90;;;16.19;64.47;93070.22;5078019;28;20527;-56
2022/12/11 07:58:18;;;;;;;5.33;1.77;;;16.00;99.90;;;16.21;64.79;93078.75;5074977;28;20465;-55
2022/12/11 08:00:45;;;;;;;6.60;2.30;;;16.00;99.90;;;16.24;64.46;93086.28;5077850;28;21040;-56
2022/12/11 08:03:14;;;;;;;3.00;1.70;;;16.00;99.90;;;16.21;64.46;93056.72;5074061;28;20447;-59
2022/12/11 08:05:44;;;;;;;7.00;1.33;;;16.00;99.90;;;16.16;64.41;93073.31;5081854;28;20469;-59
2022/12/11 08:08:11;;;;;;;6.03;2.07;;;16.00;99.90;;;16.16;64.59;93067.16;5071401;28;20457;-56
2022/12/11 08:10:38;;;;;;;4.37;1.30;;;16.00;99.90;;;16.15;64.28;93068.22;5079081;28;20535;-59
2022/12/11 08:13:06;;;;;;;4.03;1.50;;;16.00;99.90;;;16.15;64.21;93071.66;5072664;28;20502;-56
2022/12/11 08:15:34;;;;;;;6.63;1.63;;;16.00;99.90;;;16.16;64.17;93056.56;5079686;28;20468;-59
2022/12/11 08:18:01;;;;;;;13.30;1.70;;;16.00;99.90;;;16.16;64.26;93067.16;5076817;28;20630;-55
2022/12/11 08:20:30;;;;;;;2.80;1.17;;;16.00;99.90;;;16.16;64.54;93060.03;5081952;28;20787;-58
2022/12/11 08:22:57;;;;;;;5.33;1.87;;;16.00;99.90;;;16.13;64.63;93069.22;5076884;28;21061;-56
2022/12/11 08:25:24;;;;;;;6.20;1.50;;;16.00;99.90;;;16.12;64.38;93066.78;5075447;28;20471;-60
2022/12/11 08:27:52;;;;;;;13.53;1.57;;;16.00;99.90;;;16.08;64.50;93055.81;5076073;28;20808;-55
2022/12/11 08:30:19;;;;;;;4.30;1.70;;;15.90;99.90;;;16.07;64.45;93067.44;5076959;28;20478;-55
2022/12/11 08:32:46;;;;;;;8.50;2.00;;;15.90;99.90;;;16.07;63.75;93071.94;5073505;28;20490;-57
2022/12/11 08:35:14;;;;;;;4.53;1.90;;;15.90;99.90;;;16.07;63.84;93061.34;5071389;28;21093;-56
2022/12/11 08:37:43;;;;;;;8.70;1.80;;;15.90;99.90;;;16.10;63.77;93067.00;5079200;28;20515;-57
2022/12/11 08:40:13;;;;;;;4.80;1.73;;;16.00;99.90;;;16.20;63.90;93055.91;5078323;28;20501;-59
2022/12/11 08:42:40;;;;;;;8.67;1.80;;;16.00;99.90;;;16.31;63.86;93054.38;5079378;28;20476;-57
2022/12/11 08:45:09;;;;;;;3.67;1.23;;;16.10;99.90;;;16.29;63.81;93059.88;5082006;28;20462;-55
2022/12/11 08:47:37;;;;;;;4.30;1.10;;;16.10;99.90;;;16.24;63.91;93057.09;5080240;28;20454;-57
2022/12/11 08:50:05;;;;;;;4.10;2.40;;;16.10;99.90;;;16.16;64.17;93052.06;5082201;28;20474;-54
2022/12/11 08:52:34;;;;;;;5.50;1.50;;;16.00;99.90;;;16.08;64.74;93045.22;5079404;28;20489;-58
2022/12/11 08:55:03;;;;;;;5.80;2.30;;;15.90;99.90;;;15.99;64.76;93033.25;5079529;28;20477;-57
2022/12/11 08:57:31;;;;;;;1.97;1.77;;;15.90;99.90;;;15.93;65.09;93031.47;5075234;28;20454;-56
2022/12/11 08:59:59;;;;;;;8.13;1.73;;;15.80;99.90;;;15.87;65.19;93017.25;5078442;28;20478;-57
2022/12/11 09:02:26;;;;;;;1.50;1.00;;;15.70;99.90;;;15.88;65.31;93015.41;5077111;28;20519;-57
2022/12/11 09:04:54;;;;;;;5.27;1.20;;;15.70;99.90;;;16.00;64.89;93004.91;5079291;28;20469;-55
2022/12/11 09:07:21;;;;;;;3.10;1.00;;;15.80;99.90;;;16.35;64.46;93004.34;5079143;28;20449;-57
2022/12/11 09:09:50;;;;;;;1.10;0.77;;;16.10;99.90;;;16.78;63.75;93008.72;5078471;28;20495;-56
2022/12/11 09:12:19;;;;;;;6.37;1.43;;;16.40;99.90;;;17.13;63.23;93032.78;5083409;28;20485;-54
2022/12/11 09:14:46;;;;;;;4.20;1.50;;;16.70;99.90;;;17.69;62.29;93029.94;5078927;28;20466;-58
2022/12/11 09:17:13;;;;;;;3.37;1.40;;;17.20;99.90;;;18.26;61.03;93024.91;5077065;28;20950;-58
2022/12/11 09:19:41;;;;;;;15.80;1.60;;;17.70;99.90;;;18.81;59.91;93014.88;5073975;28;20547;-56
2022/12/11 09:22:10;;;;;;;5.40;1.60;;;18.20;99.90;;;19.38;58.62;93006.09;5074419;28;20450;-54
2022/12/11 09:24:37;;;;;;;9.00;1.87;;;18.80;99.00;;;19.93;58.13;92993.91;5074867;28;20920;-56
2022/12/11 09:27:04;;;;;;;5.23;1.30;;;19.30;98.50;;;20.47;55.88;93004.03;5082062;28;20461;-55
2022/12/11 09:29:33;;;;;;;4.33;1.40;;;19.80;97.00;;;20.73;53.82;93015.88;5079209;28;21095;-57
2022/12/11 09:32:00;;;;;;;7.30;1.67;;;20.10;95.40;;;20.60;54.06;93001.00;5075283;28;20905;-56
2022/12/11 09:34:27;;;;;;;4.70;1.90;;;20.20;94.60;;;20.64;53.49;93001.31;5074574;28;20938;-56
2022/12/11 09:36:55;;;;;;;4.10;1.50;;;20.20;94.00;;;20.91;53.95;93004.09;5081423;28;20461;-55
2022/12/11 09:39:22;;;;;;;7.03;1.80;;;20.50;94.60;;;21.37;52.58;93003.75;5080263;28;20464;-58
2022/12/11 09:41:55;;;;;;;1.20;1.10;;;20.80;93.50;;;21.74;52.27;93000.38;5080830;28;20473;-56
2022/12/11 09:44:33;;;;;;;9.57;1.97;;;21.10;93.20;;;22.17;50.76;93017.31;5081523;28;20485;-55
2022/12/11 09:47:00;;;;;;;2.80;1.67;;;21.50;92.10;;;22.56;47.84;93006.31;5085094;28;20461;-54
2022/12/11 09:49:34;;;;;;;7.47;1.40;;;21.90;89.70;;;22.85;49.33;93005.91;5075022;28;20474;-57
2022/12/11 09:52:12;;;;;;;1.63;1.53;;;22.20;90.20;;;23.17;48.15;93002.28;5078488;28;20485;-59
2022/12/11 09:54:43;;;;;;;3.27;1.00;;;22.50;88.60;;;23.55;47.08;93004.81;5079646;28;20473;-58
2022/12/11 09:57:18;;;;;;;5.07;2.10;;;22.80;84.70;;;23.79;46.81;93011.25;5079940;28;20463;-56
2022/12/11 09:59:59;;;;;;;6.17;2.00;;;23.10;83.90;;;24.09;46.22;92998.94;5082945;28;21091;-58
2022/12/11 10:02:32;;;;;;;5.70;1.10;;;23.40;82.90;;;24.52;45.11;92993.22;5077132;28;20458;-58
2022/12/11 10:05:08;;;;;;;3.03;1.30;;;23.70;79.70;;;24.66;44.77;93004.25;5078577;28;20470;-58
2022/12/11 10:07:40;;;;;;;1.77;0.87;;;24.00;78.30;;;24.74;44.56;93006.38;5077755;28;21012;-59
2022/12/11 10:10:14;;;;;;;4.70;1.77;;;24.10;76.80;;;24.85;44.31;92999.09;5083293;28;20481;-57
2022/12/11 10:12:46;;;;;;;7.90;1.40;;;24.30;75.90;;;24.98;44.28;92998.47;5078221;28;21021;-57
2022/12/11 10:15:24;;;;;;;1.83;0.87;;;24.40;75.70;;;25.18;44.59;92997.59;5080991;28;20987;-56
2022/12/11 10:17:51;;;;;;;4.33;1.17;;;24.50;76.00;;;25.10;43.04;93005.41;5079859;28;20869;-58
2022/12/11 10:20:23;;;;;;;1.00;0.87;;;24.50;73.10;;;24.48;43.57;92998.34;5080221;28;20754;-59
2022/12/11 10:22:51;;;;;;;2.73;1.37;;;24.10;71.00;;;23.62;45.26;93005.34;5077802;28;20454;-57
2022/12/11 10:25:21;;;;;;;5.53;1.50;;;23.50;72.20;;;22.79;46.99;93003.47;5080484;28;20538;-57
2022/12/11 10:27:49;;;;;;;1.30;1.13;;;22.80;74.40;;;22.30;48.17;93002.69;5081569;28;20461;-57
2022/12/11 10:30:19;;;;;;;1.83;0.70;;;22.20;77.40;;;21.96;48.28;93002.16;5082036;28;20651;-58
2022/12/11 10:32:53;;;;;;;2.30;1.70;;;21.80;78.10;;;21.76;49.99;92998.25;5081606;28;20482;-57